Time;durP1;ratioP1;P1;durP2;ratioP2;P2;SDS_P1;SDS_P2;PMS_P1;PMS_P2;Temp;Humidity;BMP_temperature;BMP_pressure;BME280_temperature;BME280_humidity;BME280_pressure;Samples;Min_cycle;Max_cycle;Signal;HPM_P1;HPM_P2
2022/07/04 00:01:00;;;;;;;4.78;1.52;;;;;;;;;;6130759;23;20014;-58
2022/07/04 00:03:26;;;;;;;2.17;1.48;;;;;;;;;;6143754;23;20032;-58
2022/07/04 00:05:53;;;;;;;3.72;1.45;;;;;;;;;;6131036;23;20344;-57
2022/07/04 00:08:20;;;;;;;5.35;2.30;;;;;;;;;;6143537;23;20491;-58
2022/07/04 00:10:46;;;;;;;2.42;1.90;;;;;;;;;;6126216;23;20018;-58
2022/07/04 00:13:13;;;;;;;1.90;1.40;;;;;;;;;;6133570;23;20022;-58
2022/07/04 00:15:41;;;;;;;4.20;1.77;;;;;;;;;;6109613;23;20059;-58
2022/07/04 00:18:07;;;;;;;3.63;1.70;;;;;;;;;;6124191;23;20017;-58
2022/07/04 00:20:33;;;;;;;3.33;2.17;;;;;;;;;;6137939;23;20014;-59
2022/07/04 00:23:01;;;;;;;4.78;1.60;;;;;;;;;;6129241;23;20095;-58
2022/07/04 00:25:27;;;;;;;2.90;1.73;;;;;;;;;;6137710;23;20509;-57
2022/07/04 00:27:54;;;;;;;5.15;1.98;;;;;;;;;;6121116;23;20609;-58
2022/07/04 00:30:20;;;;;;;2.58;1.95;;;;;;;;;;6133460;23;20013;-58
2022/07/04 00:32:48;;;;;;;2.33;1.83;;;;;;;;;;6129508;23;20018;-58
2022/07/04 00:35:15;;;;;;;4.38;1.77;;;;;;;;;;6138764;23;20014;-58
2022/07/04 00:37:41;;;;;;;2.47;1.60;;;;;;;;;;6133131;23;20018;-57
2022/07/04 00:40:08;;;;;;;3.42;2.20;;;;;;;;;;6140095;23;20017;-58
2022/07/04 00:42:35;;;;;;;5.00;1.70;;;;;;;;;;6132464;23;20068;-58
2022/07/04 00:45:01;;;;;;;4.18;1.98;;;;;;;;;;6140975;23;20122;-56
2022/07/04 00:47:28;;;;;;;2.97;1.80;;;;;;;;;;6137679;23;20041;-58
2022/07/04 00:49:55;;;;;;;3.83;1.98;;;;;;;;;;6133093;23;20014;-58
2022/07/04 00:52:22;;;;;;;2.30;1.63;;;;;;;;;;6132712;23;20040;-58
2022/07/04 00:54:49;;;;;;;2.40;1.88;;;;;;;;;;6141469;23;20013;-58
2022/07/04 00:57:16;;;;;;;2.78;1.90;;;;;;;;;;6131198;23;20112;-56
2022/07/04 00:59:42;;;;;;;4.28;1.65;;;;;;;;;;6140870;23;20013;-58
2022/07/04 01:02:11;;;;;;;3.40;1.80;;;;;;;;;;6142946;23;20018;-58
2022/07/04 01:04:38;;;;;;;2.05;1.40;;;;;;;;;;6138289;23;20041;-57
2022/07/04 01:07:06;;;;;;;1.70;1.48;;;;;;;;;;6136886;23;20018;-59
2022/07/04 01:09:33;;;;;;;2.13;1.80;;;;;;;;;;6135482;23;20013;-57
2022/07/04 01:12:00;;;;;;;2.17;1.40;;;;;;;;;;6131990;23;20377;-57
2022/07/04 01:14:26;;;;;;;4.10;1.60;;;;;;;;;;6118701;23;20018;-57
2022/07/04 01:16:53;;;;;;;5.40;2.05;;;;;;;;;;6140368;23;20453;-58
2022/07/04 01:19:19;;;;;;;1.83;1.73;;;;;;;;;;6140016;23;20068;-57
2022/07/04 01:21:48;;;;;;;5.28;1.60;;;;;;;;;;6129812;23;20025;-58
2022/07/04 01:24:14;;;;;;;3.63;1.70;;;;;;;;;;6143739;23;20013;-58
2022/07/04 01:26:41;;;;;;;2.63;1.70;;;;;;;;;;6122036;23;20017;-57
2022/07/04 01:29:07;;;;;;;2.92;1.88;;;;;;;;;;6145160;23;20037;-59
2022/07/04 01:31:34;;;;;;;1.85;1.40;;;;;;;;;;6132826;23;20017;-58
2022/07/04 01:34:00;;;;;;;2.58;1.38;;;;;;;;;;6144783;23;20017;-58
2022/07/04 01:36:27;;;;;;;4.25;2.22;;;;;;;;;;6106069;23;20025;-58
2022/07/04 01:38:56;;;;;;;1.92;1.50;;;;;;;;;;6136780;23;20018;-58
2022/07/04 01:41:22;;;;;;;3.87;1.50;;;;;;;;;;6127300;23;20440;-58
2022/07/04 01:43:48;;;;;;;2.05;1.25;;;;;;;;;;6145452;23;20013;-58
2022/07/04 01:46:15;;;;;;;3.22;2.05;;;;;;;;;;6132568;23;20620;-58
2022/07/04 01:48:41;;;;;;;2.45;1.70;;;;;;;;;;6148198;23;20021;-57
2022/07/04 01:51:08;;;;;;;6.60;1.85;;;;;;;;;;6131217;23;20013;-58
2022/07/04 01:53:36;;;;;;;4.50;1.75;;;;;;;;;;6138010;23;20013;-57
2022/07/04 01:56:04;;;;;;;4.63;1.50;;;;;;;;;;6124952;23;20021;-58
2022/07/04 01:58:31;;;;;;;1.88;1.65;;;;;;;;;;6143656;23;20687;-58
2022/07/04 02:03:41;;;;;;;2.83;2.03;;;;;;;;;;6136959;23;20024;-58
2022/07/04 02:06:08;;;;;;;3.13;1.80;;;;;;;;;;6129780;23;20013;-58
2022/07/04 02:11:16;;;;;;;4.30;1.73;;;;;;;;;;6140215;23;20068;-58
2022/07/04 02:13:41;;;;;;;9.65;2.10;;;;;;;;;;6131366;23;20017;-58
2022/07/04 02:16:08;;;;;;;2.13;1.77;;;;;;;;;;6141049;23;20056;-58
2022/07/04 02:18:34;;;;;;;5.78;2.20;;;;;;;;;;6138378;23;20025;-58
2022/07/04 02:21:01;;;;;;;4.68;2.63;;;;;;;;;;6132304;23;20040;-58
2022/07/04 02:23:27;;;;;;;6.18;2.60;;;;;;;;;;6128763;23;20013;-58
2022/07/04 02:25:54;;;;;;;3.47;2.58;;;;;;;;;;6130615;23;20076;-58
2022/07/04 02:28:21;;;;;;;9.07;2.60;;;;;;;;;;6140741;23;20081;-58
2022/07/04 02:30:48;;;;;;;4.32;2.13;;;;;;;;;;6129488;23;20037;-58
2022/07/04 02:33:14;;;;;;;5.05;2.20;;;;;;;;;;6142906;23;20017;-58
2022/07/04 02:35:41;;;;;;;3.65;2.13;;;;;;;;;;6137528;23;20620;-58
2022/07/04 02:38:08;;;;;;;4.35;2.45;;;;;;;;;;6133250;23;20021;-56
2022/07/04 02:40:34;;;;;;;5.30;2.42;;;;;;;;;;6137749;23;20097;-57
2022/07/04 02:43:01;;;;;;;5.28;2.25;;;;;;;;;;6131217;23;20494;-58
2022/07/04 02:45:29;;;;;;;7.07;2.47;;;;;;;;;;6113757;23;20017;-56
2022/07/04 02:47:56;;;;;;;6.93;2.90;;;;;;;;;;6137295;23;20021;-58
2022/07/04 02:50:22;;;;;;;4.68;2.47;;;;;;;;;;6084186;23;1312569;-56
2022/07/04 02:52:49;;;;;;;5.43;2.72;;;;;;;;;;6126204;23;20013;-57
2022/07/04 02:55:15;;;;;;;3.55;2.40;;;;;;;;;;6139063;23;20037;-58
2022/07/04 02:57:42;;;;;;;6.00;2.63;;;;;;;;;;6115485;23;20021;-57
2022/07/04 03:00:09;;;;;;;7.63;2.85;;;;;;;;;;6134034;23;20421;-58
2022/07/04 03:02:37;;;;;;;8.75;2.78;;;;;;;;;;6129646;23;20014;-57
2022/07/04 03:05:04;;;;;;;4.70;2.85;;;;;;;;;;6138125;23;20017;-55
2022/07/04 03:07:30;;;;;;;5.03;2.50;;;;;;;;;;6139768;23;20022;-57
2022/07/04 03:09:57;;;;;;;3.78;2.90;;;;;;;;;;6128312;23;20076;-58
2022/07/04 03:12:23;;;;;;;5.00;2.67;;;;;;;;;;6138515;23;20468;-58
2022/07/04 03:14:49;;;;;;;6.47;3.00;;;;;;;;;;6145929;23;20037;-55
2022/07/04 03:17:16;;;;;;;8.00;3.65;;;;;;;;;;6138726;23;20053;-58
2022/07/04 03:19:44;;;;;;;4.53;2.88;;;;;;;;;;6134321;23;20506;-58
2022/07/04 03:22:10;;;;;;;4.93;2.75;;;;;;;;;;6123444;23;20014;-58
2022/07/04 03:24:37;;;;;;;4.85;2.78;;;;;;;;;;6137940;23;20014;-58
2022/07/04 03:27:04;;;;;;;7.45;3.22;;;;;;;;;;6138412;23;20021;-58
2022/07/04 03:29:30;;;;;;;8.63;3.65;;;;;;;;;;6131740;23;20064;-58
2022/07/04 03:31:57;;;;;;;7.07;2.90;;;;;;;;;;6141749;23;20013;-57
2022/07/04 03:34:23;;;;;;;8.32;3.45;;;;;;;;;;6138769;23;20017;-58
2022/07/04 03:36:51;;;;;;;10.82;4.00;;;;;;;;;;6128347;23;20021;-58
2022/07/04 03:39:18;;;;;;;5.50;2.92;;;;;;;;;;6146926;23;20009;-58
2022/07/04 03:41:44;;;;;;;6.50;3.55;;;;;;;;;;6139723;23;20080;-57
2022/07/04 03:44:10;;;;;;;9.88;4.10;;;;;;;;;;6126149;23;20014;-58
2022/07/04 03:46:37;;;;;;;9.13;4.35;;;;;;;;;;6106915;23;20076;-58
2022/07/04 03:49:03;;;;;;;8.07;4.13;;;;;;;;;;6121701;23;20017;-54
2022/07/04 03:51:30;;;;;;;8.23;3.83;;;;;;;;;;6129508;23;20017;-58
2022/07/04 03:53:58;;;;;;;5.25;4.03;;;;;;;;;;6130610;23;20021;-58
2022/07/04 03:56:24;;;;;;;7.63;3.75;;;;;;;;;;6143744;23;20021;-58
2022/07/04 03:58:51;;;;;;;8.27;3.88;;;;;;;;;;6115615;23;20470;-58
2022/07/04 04:01:18;;;;;;;10.45;4.25;;;;;;;;;;6139874;23;20378;-58
2022/07/04 04:06:29;;;;;;;7.07;4.80;;;;;;;;;;6126245;23;20543;-58
2022/07/04 04:08:55;;;;;;;7.40;4.45;;;;;;;;;;6140608;23;20017;-58
2022/07/04 04:11:23;;;;;;;12.07;4.30;;;;;;;;;;6128761;23;20018;-57
2022/07/04 04:13:50;;;;;;;5.78;4.35;;;;;;;;;;6143645;23;20039;-57
2022/07/04 04:16:16;;;;;;;9.18;4.10;;;;;;;;;;6128386;23;20040;-57
2022/07/04 04:18:43;;;;;;;9.18;4.30;;;;;;;;;;6136141;23;20024;-58
2022/07/04 04:21:09;;;;;;;7.75;4.13;;;;;;;;;;6127801;23;20013;-58
2022/07/04 04:23:36;;;;;;;9.38;3.80;;;;;;;;;;6141622;23;20032;-57
2022/07/04 04:26:02;;;;;;;13.63;4.03;;;;;;;;;;6139021;23;20021;-58
2022/07/04 04:28:30;;;;;;;7.00;3.70;;;;;;;;;;6143986;23;20579;-58
2022/07/04 04:30:56;;;;;;;6.95;3.60;;;;;;;;;;6141716;23;20018;-58
2022/07/04 04:33:23;;;;;;;6.63;3.35;;;;;;;;;;6139434;23;20074;-58
2022/07/04 04:35:49;;;;;;;8.10;3.70;;;;;;;;;;6129975;23;20013;-56
2022/07/04 04:38:16;;;;;;;10.27;3.33;;;;;;;;;;6136246;23;20021;-58
2022/07/04 04:40:42;;;;;;;8.85;3.85;;;;;;;;;;6134863;23;20024;-58
2022/07/04 04:43:09;;;;;;;6.30;3.22;;;;;;;;;;6129366;23;20014;-58
2022/07/04 04:45:37;;;;;;;12.35;3.53;;;;;;;;;;6136416;23;20022;-58
2022/07/04 04:48:03;;;;;;;14.80;3.63;;;;;;;;;;6131821;23;20376;-58
2022/07/04 04:50:30;;;;;;;6.50;3.35;;;;;;;;;;6141955;23;20041;-55
2022/07/04 04:52:57;;;;;;;6.25;3.55;;;;;;;;;;6122475;23;20021;-57
2022/07/04 04:55:23;;;;;;;7.75;3.15;;;;;;;;;;6141055;23;20021;-58
2022/07/04 04:57:50;;;;;;;4.75;3.40;;;;;;;;;;6127191;23;20143;-58
2022/07/04 05:00:16;;;;;;;8.65;4.43;;;;;;;;;;6144674;23;20018;-58
2022/07/04 05:02:44;;;;;;;6.70;3.15;;;;;;;;;;6129445;23;20022;-56
2022/07/04 05:05:11;;;;;;;4.95;2.75;;;;;;;;;;6140648;23;20583;-58
2022/07/04 05:07:37;;;;;;;5.68;2.70;;;;;;;;;;6133804;23;20382;-58
2022/07/04 05:10:04;;;;;;;3.90;2.90;;;;;;;;;;6145483;23;20075;-57
2022/07/04 05:12:31;;;;;;;8.02;2.85;;;;;;;;;;6127628;23;20077;-58
2022/07/04 05:14:58;;;;;;;3.78;2.67;;;;;;;;;;6112739;23;20048;-58
2022/07/04 05:17:24;;;;;;;5.22;2.78;;;;;;;;;;6132388;23;20026;-56
2022/07/04 05:19:53;;;;;;;8.30;2.78;;;;;;;;;;6129882;23;20013;-58
2022/07/04 05:22:19;;;;;;;4.72;3.22;;;;;;;;;;6137028;23;20017;-57
2022/07/04 05:24:46;;;;;;;9.77;3.80;;;;;;;;;;6134471;23;20038;-57
2022/07/04 05:27:12;;;;;;;8.30;3.08;;;;;;;;;;6129596;23;20018;-58
2022/07/04 05:29:38;;;;;;;4.72;2.65;;;;;;;;;;6109910;23;20017;-58
2022/07/04 05:32:05;;;;;;;5.82;2.88;;;;;;;;;;6136746;23;20013;-58
2022/07/04 05:34:32;;;;;;;4.47;2.78;;;;;;;;;;6133494;23;20018;-57
2022/07/04 05:37:00;;;;;;;10.10;2.70;;;;;;;;;;6134777;23;20022;-58
2022/07/04 05:39:26;;;;;;;8.55;2.50;;;;;;;;;;6145171;23;20014;-58
2022/07/04 05:41:53;;;;;;;2.97;2.38;;;;;;;;;;6126208;23;20433;-57
2022/07/04 05:44:23;;;;;;;11.27;3.55;;;;;;;;;;6143448;23;20067;-58
2022/07/04 05:46:50;;;;;;;6.18;2.70;;;;;;;;;;6144247;23;20022;-57
2022/07/04 05:49:18;;;;;;;6.57;2.72;;;;;;;;;;6136013;23;20013;-58
2022/07/04 05:51:45;;;;;;;3.30;2.63;;;;;;;;;;6141594;23;20021;-57
2022/07/04 05:54:12;;;;;;;8.68;2.65;;;;;;;;;;6132639;23;20028;-58
2022/07/04 05:56:41;;;;;;;6.55;2.92;;;;;;;;;;6136241;23;20014;-57
2022/07/04 05:59:08;;;;;;;8.60;2.70;;;;;;;;;;6129775;23;20013;-58
2022/07/04 06:01:34;;;;;;;8.07;2.38;;;;;;;;;;6140707;23;20014;-58
2022/07/04 06:04:01;;;;;;;7.63;2.30;;;;;;;;;;6140365;23;20017;-57
2022/07/04 06:06:27;;;;;;;3.47;2.00;;;;;;;;;;6138710;23;20029;-58
2022/07/04 06:08:54;;;;;;;3.25;1.88;;;;;;;;;;6135185;23;20022;-58
2022/07/04 06:11:22;;;;;;;18.20;2.45;;;;;;;;;;6128711;23;20045;-57
2022/07/04 06:13:49;;;;;;;6.72;1.85;;;;;;;;;;6141283;23;20021;-58
2022/07/04 06:16:16;;;;;;;4.68;2.40;;;;;;;;;;6138326;23;20532;-58
2022/07/04 06:18:42;;;;;;;3.50;2.35;;;;;;;;;;6134822;23;20022;-58
2022/07/04 06:21:09;;;;;;;4.65;2.13;;;;;;;;;;6132599;23;20013;-58
2022/07/04 06:23:36;;;;;;;4.03;2.20;;;;;;;;;;6137338;23;20014;-58
2022/07/04 06:26:03;;;;;;;4.63;1.90;;;;;;;;;;6111435;23;20040;-58
2022/07/04 06:28:31;;;;;;;4.55;1.85;;;;;;;;;;6143885;23;20020;-58
2022/07/04 06:30:57;;;;;;;3.55;1.70;;;;;;;;;;6128001;23;20073;-58
2022/07/04 06:33:24;;;;;;;7.38;2.28;;;;;;;;;;6142313;23;20021;-57
2022/07/04 06:35:54;;;;;;;7.97;2.78;;;;;;;;;;6135503;23;20045;-57
2022/07/04 06:38:21;;;;;;;6.15;1.80;;;;;;;;;;6134258;23;20028;-59
2022/07/04 06:40:49;;;;;;;3.47;1.92;;;;;;;;;;6099559;23;20044;-57
2022/07/04 06:43:16;;;;;;;5.10;2.75;;;;;;;;;;6133112;23;20045;-58
2022/07/04 06:45:44;;;;;;;4.85;2.42;;;;;;;;;;6134087;23;20017;-58
2022/07/04 06:48:10;;;;;;;6.05;2.70;;;;;;;;;;6135817;23;20024;-58
2022/07/04 06:50:37;;;;;;;3.80;2.00;;;;;;;;;;6136013;23;20018;-58
2022/07/04 06:53:04;;;;;;;2.45;2.17;;;;;;;;;;6123734;23;20017;-58
2022/07/04 06:55:31;;;;;;;7.90;2.80;;;;;;;;;;6132853;23;20037;-57
2022/07/04 06:57:57;;;;;;;5.30;2.17;;;;;;;;;;6141948;23;20028;-58
2022/07/04 07:00:25;;;;;;;4.57;2.65;;;;;;;;;;6137910;23;20022;-57
2022/07/04 07:02:53;;;;;;;3.95;2.00;;;;;;;;;;6143167;23;20386;-57
2022/07/04 07:05:19;;;;;;;4.07;1.85;;;;;;;;;;6138320;23;20492;-58
2022/07/04 07:07:46;;;;;;;5.50;2.28;;;;;;;;;;6138288;23;20096;-57
2022/07/04 07:10:12;;;;;;;4.78;1.98;;;;;;;;;;6138730;23;20391;-58
2022/07/04 07:12:39;;;;;;;4.30;1.90;;;;;;;;;;6135195;23;20014;-58
2022/07/04 07:15:06;;;;;;;6.03;2.95;;;;;;;;;;6135835;23;20013;-57
2022/07/04 07:17:32;;;;;;;7.65;2.50;;;;;;;;;;6145125;23;20543;-58
2022/07/04 07:20:00;;;;;;;5.38;2.40;;;;;;;;;;6136297;23;20069;-58
2022/07/04 07:22:26;;;;;;;6.57;1.95;;;;;;;;;;6133893;23;20041;-58
2022/07/04 07:24:53;;;;;;;9.90;2.65;;;;;;;;;;6136618;23;20319;-58
2022/07/04 07:27:19;;;;;;;7.35;2.17;;;;;;;;;;6140405;23;20018;-57
2022/07/04 07:29:46;;;;;;;11.77;3.10;;;;;;;;;;6133313;23;20017;-58
2022/07/04 07:32:12;;;;;;;4.38;2.08;;;;;;;;;;6138708;23;20518;-58
2022/07/04 07:34:40;;;;;;;4.60;1.77;;;;;;;;;;6136671;23;20013;-58
2022/07/04 07:37:08;;;;;;;3.92;1.67;;;;;;;;;;6136920;23;20471;-58
2022/07/04 07:39:36;;;;;;;4.38;1.98;;;;;;;;;;6134933;23;20023;-58
2022/07/04 07:42:03;;;;;;;6.63;2.10;;;;;;;;;;6135187;23;20049;-58
2022/07/04 07:44:32;;;;;;;5.70;1.90;;;;;;;;;;6136695;23;20044;-59
2022/07/04 07:46:58;;;;;;;2.92;1.38;;;;;;;;;;6143416;23;20432;-58
2022/07/04 07:49:25;;;;;;;3.22;1.02;;;;;;;;;;6135888;23;20081;-58
2022/07/04 07:51:51;;;;;;;0.88;0.88;;;;;;;;;;6134700;23;20202;-58
2022/07/04 07:54:19;;;;;;;2.72;0.95;;;;;;;;;;6108638;23;20017;-58
2022/07/04 07:56:46;;;;;;;1.58;0.70;;;;;;;;;;6130992;23;20021;-58
2022/07/04 07:59:12;;;;;;;2.05;1.02;;;;;;;;;;6130091;23;20052;-59
2022/07/04 08:01:39;;;;;;;3.10;0.93;;;;;;;;;;6133541;23;20025;-58
2022/07/04 08:06:50;;;;;;;7.88;1.23;;;;;;;;;;6130923;23;20241;-58
2022/07/04 08:09:17;;;;;;;1.65;0.68;;;;;;;;;;6140073;23;20017;-59
2022/07/04 08:11:45;;;;;;;4.82;0.88;;;;;;;;;;6130699;23;20018;-58
2022/07/04 08:14:11;;;;;;;2.28;0.70;;;;;;;;;;6096752;23;20021;-59
2022/07/04 08:16:38;;;;;;;2.78;0.88;;;;;;;;;;6126237;23;20021;-59
2022/07/04 08:19:04;;;;;;;1.45;0.88;;;;;;;;;;6105192;23;20530;-57
2022/07/04 08:21:31;;;;;;;1.80;0.60;;;;;;;;;;6121172;23;20014;-58
2022/07/04 08:23:57;;;;;;;2.78;0.70;;;;;;;;;;6137906;23;20044;-58
2022/07/04 08:26:25;;;;;;;1.42;0.70;;;;;;;;;;6137257;23;20032;-57
2022/07/04 08:28:57;;;;;;;2.17;1.13;;;;;;;;;;6138138;23;20610;-58
2022/07/04 08:31:23;;;;;;;1.20;0.60;;;;;;;;;;6136592;23;20017;-58
2022/07/04 08:33:50;;;;;;;1.25;0.70;;;;;;;;;;6114088;23;20014;-58
2022/07/04 08:36:16;;;;;;;2.38;0.60;;;;;;;;;;6128346;23;20013;-58
2022/07/04 08:38:43;;;;;;;1.38;0.60;;;;;;;;;;6139727;23;20022;-58
2022/07/04 08:41:09;;;;;;;1.63;0.63;;;;;;;;;;6126909;23;20017;-59
2022/07/04 08:43:36;;;;;;;2.15;0.65;;;;;;;;;;6143897;23;20013;-58
2022/07/04 08:46:05;;;;;;;1.27;0.73;;;;;;;;;;6133132;23;20014;-58
2022/07/04 08:48:32;;;;;;;2.42;0.50;;;;;;;;;;6142246;23;20020;-58
2022/07/04 08:51:00;;;;;;;0.68;0.50;;;;;;;;;;6103645;23;20064;-58
2022/07/04 08:53:28;;;;;;;2.03;0.47;;;;;;;;;;6146985;23;20013;-58
2022/07/04 08:58:40;;;;;;;0.88;0.55;;;;;;;;;;6142273;23;20048;-58
2022/07/04 09:01:14;;;;;;;2.95;1.77;;;;;;;;;;6125306;23;20014;-58
2022/07/04 09:03:41;;;;;;;1.65;1.13;;;;;;;;;;6137970;23;20041;-58
2022/07/04 09:06:08;;;;;;;3.80;1.00;;;;;;;;;;6132547;23;20033;-58
2022/07/04 09:08:34;;;;;;;2.47;0.55;;;;;;;;;;6137613;23;20017;-58
2022/07/04 09:11:01;;;;;;;5.90;0.80;;;;;;;;;;6138680;23;20024;-57
2022/07/04 09:13:28;;;;;;;3.47;1.48;;;;;;;;;;6136602;23;20013;-58
2022/07/04 09:15:54;;;;;;;1.33;0.90;;;;;;;;;;6137655;23;20078;-58
2022/07/04 09:18:23;;;;;;;2.55;0.93;;;;;;;;;;6145010;23;20021;-58
2022/07/04 09:20:50;;;;;;;3.63;0.88;;;;;;;;;;6132427;23;20014;-58
2022/07/04 09:23:20;;;;;;;2.00;1.23;;;;;;;;;;6136207;23;20400;-58
2022/07/04 09:25:47;;;;;;;5.75;0.90;;;;;;;;;;6135704;23;20017;-58
2022/07/04 09:28:27;;;;;;;0.77;0.60;;;;;;;;;;6139048;23;20020;-58
2022/07/04 09:30:54;;;;;;;2.50;0.95;;;;;;;;;;6138760;23;20076;-58
2022/07/04 09:33:21;;;;;;;1.13;0.70;;;;;;;;;;6149225;23;20013;-58
2022/07/04 09:35:49;;;;;;;3.17;1.15;;;;;;;;;;6130995;23;20033;-58
2022/07/04 09:38:22;;;;;;;3.70;1.23;;;;;;;;;;6137339;23;20907;-58
2022/07/04 09:43:38;;;;;;;1.70;1.20;;;;;;;;;;6136523;23;20643;-58
2022/07/04 09:46:05;;;;;;;4.60;1.60;;;;;;;;;;6148286;23;20024;-59
2022/07/04 09:48:47;;;;;;;1.45;1.10;;;;;;;;;;6141134;23;20013;-58
2022/07/04 09:51:16;;;;;;;4.07;1.75;;;;;;;;;;6126064;23;20017;-58
2022/07/04 09:53:43;;;;;;;4.22;1.30;;;;;;;;;;6138394;23;20049;-58
2022/07/04 09:56:09;;;;;;;5.00;1.60;;;;;;;;;;6139362;23;20014;-58
2022/07/04 09:58:36;;;;;;;2.65;1.25;;;;;;;;;;6137652;23;20181;-58
2022/07/04 10:01:02;;;;;;;3.28;1.30;;;;;;;;;;6138927;23;20018;-57
2022/07/04 10:03:32;;;;;;;3.17;1.50;;;;;;;;;;6140818;23;20080;-58
2022/07/04 10:06:03;;;;;;;3.28;1.00;;;;;;;;;;6143245;23;20048;-58
2022/07/04 10:08:32;;;;;;;3.42;1.75;;;;;;;;;;6126741;23;20128;-58
2022/07/04 10:11:00;;;;;;;1.88;1.48;;;;;;;;;;6148968;23;20064;-59
2022/07/04 10:13:28;;;;;;;3.25;1.90;;;;;;;;;;6110525;23;20794;-58
2022/07/04 10:15:55;;;;;;;4.32;1.23;;;;;;;;;;6136993;23;20017;-58
2022/07/04 10:18:23;;;;;;;3.22;1.70;;;;;;;;;;6132090;23;20021;-58
2022/07/04 10:20:50;;;;;;;3.60;1.40;;;;;;;;;;6130831;23;20013;-58
2022/07/04 10:23:18;;;;;;;1.30;1.20;;;;;;;;;;6132072;23;20018;-58
2022/07/04 10:25:46;;;;;;;2.42;1.50;;;;;;;;;;6140426;23;20068;-57
2022/07/04 10:28:13;;;;;;;3.92;1.20;;;;;;;;;;6106307;23;20024;-58
2022/07/04 10:30:40;;;;;;;7.30;1.60;;;;;;;;;;6144417;23;20017;-58
2022/07/04 10:33:08;;;;;;;2.95;1.60;;;;;;;;;;6141728;23;20053;-58
2022/07/04 10:35:47;;;;;;;6.57;1.65;;;;;;;;;;6143185;23;20014;-58
2022/07/04 10:38:14;;;;;;;4.75;1.30;;;;;;;;;;6138457;23;20024;-58
2022/07/04 10:40:48;;;;;;;4.63;1.92;;;;;;;;;;6138428;23;20041;-58
2022/07/04 10:43:37;;;;;;;3.90;1.35;;;;;;;;;;6144411;23;20025;-58
2022/07/04 10:46:19;;;;;;;3.58;1.40;;;;;;;;;;6126327;23;20017;-58
2022/07/04 10:48:50;;;;;;;3.88;1.88;;;;;;;;;;6141608;23;20404;-58
2022/07/04 10:51:32;;;;;;;2.85;1.25;;;;;;;;;;6140594;23;20470;-59
2022/07/04 10:53:59;;;;;;;3.03;1.70;;;;;;;;;;6134425;23;20614;-57
2022/07/04 10:56:36;;;;;;;2.50;1.42;;;;;;;;;;6139508;23;20228;-58
2022/07/04 10:59:04;;;;;;;3.45;1.30;;;;;;;;;;6133037;23;20021;-58
2022/07/04 11:01:30;;;;;;;3.25;1.73;;;;;;;;;;6117962;23;20027;-58
2022/07/04 11:03:57;;;;;;;3.58;1.58;;;;;;;;;;6132247;23;20458;-57
2022/07/04 11:06:43;;;;;;;6.15;1.65;;;;;;;;;;6139910;23;20028;-58
2022/07/04 11:09:16;;;;;;;3.38;1.70;;;;;;;;;;6131460;23;20029;-56
2022/07/04 11:11:50;;;;;;;8.82;1.85;;;;;;;;;;6140097;23;20017;-58
2022/07/04 11:14:30;;;;;;;4.65;1.50;;;;;;;;;;6100877;23;20013;-56
2022/07/04 11:16:56;;;;;;;;;;;;;;;;;;6137047;23;20025;-57
2022/07/04 11:19:23;;;;;;;5.95;1.98;;;;;;;;;;6134162;23;19936;-57
2022/07/04 11:21:50;;;;;;;4.80;1.63;;;;;;;;;;6141091;23;20045;-57
2022/07/04 11:24:17;;;;;;;3.35;1.65;;;;;;;;;;6121888;23;20018;-58
2022/07/04 11:26:44;;;;;;;4.40;1.67;;;;;;;;;;6135817;23;20084;-58
2022/07/04 11:29:14;;;;;;;8.25;2.40;;;;;;;;;;6131776;23;20014;-58
2022/07/04 11:31:42;;;;;;;5.15;1.92;;;;;;;;;;6141977;23;20301;-58
2022/07/04 11:34:08;;;;;;;3.90;1.85;;;;;;;;;;6128389;23;20018;-58
2022/07/04 11:36:35;;;;;;;4.65;2.00;;;;;;;;;;6140159;23;20020;-58
2022/07/04 11:39:02;;;;;;;6.30;2.10;;;;;;;;;;6110175;23;20022;-58
2022/07/04 11:47:06;;;;;;;4.20;1.80;;;;;;;;;;6139058;23;20091;-57
2022/07/04 11:49:33;;;;;;;3.95;1.50;;;;;;;;;;6128173;23;20088;-58
2022/07/04 11:52:00;;;;;;;3.05;1.05;;;;;;;;;;6131282;23;20017;-57
2022/07/04 11:54:26;;;;;;;4.13;1.70;;;;;;;;;;6121201;23;20013;-58
2022/07/04 11:56:53;;;;;;;3.50;1.65;;;;;;;;;;6139262;23;20376;-57
2022/07/04 11:59:21;;;;;;;3.30;1.73;;;;;;;;;;6132947;23;20028;-57
2022/07/04 12:01:47;;;;;;;3.45;1.58;;;;;;;;;;6140122;23;20023;-57
2022/07/04 12:04:15;;;;;;;3.70;1.52;;;;;;;;;;6130860;23;20018;-57
2022/07/04 12:06:42;;;;;;;4.53;1.40;;;;;;;;;;6132690;23;20017;-58
2022/07/04 12:09:09;;;;;;;3.03;1.10;;;;;;;;;;6132772;23;20022;-58
2022/07/04 12:11:51;;;;;;;5.18;1.92;;;;;;;;;;6124996;23;20017;-58
2022/07/04 12:14:18;;;;;;;4.55;1.25;;;;;;;;;;6135925;23;20710;-58
2022/07/04 12:16:47;;;;;;;8.00;1.67;;;;;;;;;;6138602;23;20017;-58
2022/07/04 12:19:13;;;;;;;4.10;1.43;;;;;;;;;;6103579;23;20387;-58
2022/07/04 12:21:42;;;;;;;2.03;1.30;;;;;;;;;;6123597;23;20040;-58
2022/07/04 12:24:09;;;;;;;1.73;1.23;;;;;;;;;;6137209;23;20017;-58
2022/07/04 12:26:45;;;;;;;6.13;1.20;;;;;;;;;;6127965;23;20186;-57
2022/07/04 12:29:11;;;;;;;3.63;1.20;;;;;;;;;;6126518;23;20017;-58
2022/07/04 12:31:41;;;;;;;2.22;1.40;;;;;;;;;;6136711;23;20024;-58
2022/07/04 12:34:17;;;;;;;7.78;1.33;;;;;;;;;;6130939;23;20026;-58
2022/07/04 12:36:50;;;;;;;3.50;1.40;;;;;;;;;;6132094;23;20021;-58
2022/07/04 12:39:27;;;;;;;3.13;1.27;;;;;;;;;;6130480;23;20459;-57
2022/07/04 12:42:03;;;;;;;3.10;1.27;;;;;;;;;;6134868;23;20018;-57
2022/07/04 12:44:30;;;;;;;2.65;1.23;;;;;;;;;;6130310;23;20075;-58
2022/07/04 12:46:57;;;;;;;2.60;0.98;;;;;;;;;;6139619;23;20439;-58
2022/07/04 12:49:25;;;;;;;2.83;1.10;;;;;;;;;;6133749;23;20022;-57
2022/07/04 12:51:52;;;;;;;2.05;0.98;;;;;;;;;;6140030;23;20064;-57
2022/07/04 12:54:18;;;;;;;2.78;1.17;;;;;;;;;;6138990;23;20021;-58
2022/07/04 12:56:46;;;;;;;1.50;1.30;;;;;;;;;;6137316;23;20107;-56
2022/07/04 12:59:14;;;;;;;2.00;1.77;;;;;;;;;;6134379;23;20017;-57
2022/07/04 13:01:41;;;;;;;3.17;1.30;;;;;;;;;;6109998;23;20104;-57
2022/07/04 13:04:08;;;;;;;1.33;1.15;;;;;;;;;;6140433;23;20013;-58
2022/07/04 13:06:36;;;;;;;3.28;1.20;;;;;;;;;;6145061;23;20017;-57
2022/07/04 13:09:04;;;;;;;0.85;0.82;;;;;;;;;;6143762;23;20013;-57
2022/07/04 13:14:15;;;;;;;1.83;1.00;;;;;;;;;;6142473;23;20040;-58
2022/07/04 13:16:41;;;;;;;1.77;0.90;;;;;;;;;;6101954;23;20021;-58
2022/07/04 13:19:08;;;;;;;3.92;1.10;;;;;;;;;;6146382;23;20021;-58
2022/07/04 13:21:36;;;;;;;1.35;0.90;;;;;;;;;;6127359;23;20013;-58
2022/07/04 13:24:03;;;;;;;2.45;0.90;;;;;;;;;;6138296;23;20017;-58
2022/07/04 13:26:32;;;;;;;2.22;1.02;;;;;;;;;;6141494;23;20013;-57
2022/07/04 13:29:00;;;;;;;2.08;0.65;;;;;;;;;;6129175;23;20030;-58
2022/07/04 13:31:28;;;;;;;2.22;0.77;;;;;;;;;;6143788;23;20017;-58
2022/07/04 13:33:54;;;;;;;5.20;0.75;;;;;;;;;;6124037;23;20068;-58
2022/07/04 13:36:21;;;;;;;3.40;1.30;;;;;;;;;;6147000;23;20084;-58
2022/07/04 13:38:49;;;;;;;1.50;0.85;;;;;;;;;;6132564;23;20021;-58
2022/07/04 13:41:15;;;;;;;2.90;0.77;;;;;;;;;;6139319;23;20433;-58
2022/07/04 13:43:42;;;;;;;1.17;1.00;;;;;;;;;;6144361;23;20018;-58
2022/07/04 13:46:08;;;;;;;3.67;1.00;;;;;;;;;;6125026;23;20041;-58
2022/07/04 13:48:35;;;;;;;2.80;0.95;;;;;;;;;;6139274;23;20448;-56
2022/07/04 13:51:01;;;;;;;1.70;0.85;;;;;;;;;;6123485;23;20018;-58
2022/07/04 13:53:28;;;;;;;3.53;0.70;;;;;;;;;;6118098;23;20048;-58
2022/07/04 13:55:56;;;;;;;3.08;0.80;;;;;;;;;;6135411;23;20021;-58
2022/07/04 13:58:22;;;;;;;2.75;0.73;;;;;;;;;;6144704;23;20456;-58
2022/07/04 14:00:49;;;;;;;2.75;0.95;;;;;;;;;;6131380;23;20025;-57
2022/07/04 14:03:15;;;;;;;0.70;0.70;;;;;;;;;;6144714;23;20021;-58
2022/07/04 14:05:44;;;;;;;3.78;1.17;;;;;;;;;;6141417;23;20078;-58
2022/07/04 14:08:11;;;;;;;3.22;0.90;;;;;;;;;;6139457;23;20045;-58
2022/07/04 14:10:37;;;;;;;4.35;0.80;;;;;;;;;;6122733;23;20189;-57
2022/07/04 14:13:05;;;;;;;2.88;1.00;;;;;;;;;;6142436;23;20117;-58
2022/07/04 14:15:33;;;;;;;4.50;1.05;;;;;;;;;;6101417;23;20018;-58
2022/07/04 14:18:00;;;;;;;1.83;1.00;;;;;;;;;;6143582;23;20021;-58
2022/07/04 14:20:26;;;;;;;3.05;1.10;;;;;;;;;;6138109;23;20045;-58
2022/07/04 14:22:53;;;;;;;2.65;1.23;;;;;;;;;;6138623;23;20052;-55
2022/07/04 14:25:20;;;;;;;2.38;0.90;;;;;;;;;;6126139;23;20329;-57
2022/07/04 14:27:47;;;;;;;3.92;0.80;;;;;;;;;;6137976;23;20013;-57
2022/07/04 14:30:15;;;;;;;4.43;0.98;;;;;;;;;;6121430;23;20206;-58
2022/07/04 14:32:41;;;;;;;1.45;0.80;;;;;;;;;;6142103;23;20023;-57
2022/07/04 14:35:08;;;;;;;3.20;1.17;;;;;;;;;;6145925;23;20013;-57
2022/07/04 14:37:35;;;;;;;2.60;0.63;;;;;;;;;;6129211;23;20081;-58
2022/07/04 14:40:01;;;;;;;1.70;0.80;;;;;;;;;;6140063;23;20032;-58
2022/07/04 14:42:28;;;;;;;3.35;0.60;;;;;;;;;;6106967;23;20081;-57
2022/07/04 14:44:54;;;;;;;2.72;1.00;;;;;;;;;;6114977;23;20053;-57
2022/07/04 14:47:22;;;;;;;2.75;1.02;;;;;;;;;;6112565;23;20041;-57
2022/07/04 14:49:49;;;;;;;1.88;0.70;;;;;;;;;;6113966;23;20031;-57
2022/07/04 14:52:15;;;;;;;2.45;1.00;;;;;;;;;;6134703;23;20025;-57
2022/07/04 14:54:42;;;;;;;2.03;1.05;;;;;;;;;;6138041;23;20582;-57
2022/07/04 14:57:08;;;;;;;7.10;0.88;;;;;;;;;;6109995;23;20519;-58
2022/07/04 14:59:36;;;;;;;1.50;0.80;;;;;;;;;;6137693;23;20084;-58
2022/07/04 15:02:03;;;;;;;1.42;0.70;;;;;;;;;;6114707;23;20028;-57
2022/07/04 15:04:31;;;;;;;2.00;0.90;;;;;;;;;;6144892;23;20066;-57
2022/07/04 15:06:58;;;;;;;3.50;0.82;;;;;;;;;;6136393;23;20129;-58
2022/07/04 15:09:24;;;;;;;1.40;1.10;;;;;;;;;;6141147;23;20602;-54